Flight Track Log - Related Links

Times and Time Zones

All times are in EDT time to prevent confusion due to time zone crossing. See the SWA3497 flight status page for this flight to view local times or setup timezone preferences in your user account.

Time Position Orientation Groundspeed Altitude Reporting Facility
EDT Latitude Longitude Course Direction KTS MPH feet Rate Location/Type
02:33PM 38.0736 -85.6817 79° East 264 304 4,800  Level Indianapolis Center
02:34PM 38.0144 -85.6394 151° Southeast 258 297 8,700 2,855 Climbing Indianapolis Center
02:35PM 38.0267 -85.5369 81° East 301 346 10,700 2,081 Climbing Indianapolis Center
02:36PM 38.0825 -85.4481 51° Northeast 323 372 13,000 2,855 Climbing Indianapolis Center
02:37PM 38.1244 -85.3097 69° East 367 422 16,600 3,048 Climbing Indianapolis Center
02:38PM 38.2974 -84.8985 79° East  Level Estimated
02:38PM 38.1325 -85.1683 86° East 395 455 19,300  Level Indianapolis Center
02:39PM 38.1439 -85.0228 84° East 408 470 22,100 2,098 Climbing Indianapolis Center
02:40PM 38.1564 -84.8681 84° East 429 494 23,600 1,790 Climbing Indianapolis Center
02:41PM 38.1683 -84.7072 85° East 450 518 25,800 1,984 Climbing Indianapolis Center
02:42PM 38.1814 -84.5381 84° East 476 548 27,700 2,032 Climbing Indianapolis Center
02:43PM 38.1967 -84.3328 85° East 494 568 30,000 1,984 Climbing Indianapolis Center
02:44PM 38.2092 -84.1511 85° East 508 585 31,800 1,935 Climbing Indianapolis Center
02:45PM 38.2217 -83.9694 85° East 514 592 34,000 1,887 Climbing Indianapolis Center
02:46PM 38.2333 -83.7919 85° East 507 583 35,700 1,258 Climbing Indianapolis Center
02:47PM 38.2453 -83.6094 85° East 514 592 36,600 629 Climbing Indianapolis Center
02:48PM 38.2561 -83.4239 86° East 522 601 37,000 194 Climbing Indianapolis Center
02:49PM 38.2681 -83.2386 85° East 524 603 37,000  Level Indianapolis Center
02:50PM 38.2819 -83.0217 85° East 524 603 37,000  Level Indianapolis Center
02:51PM 38.2917 -82.8372 86° East 522 601 37,000  Level Indianapolis Center
02:52PM 38.3031 -82.6522 85° East 524 603 37,000  Level Indianapolis Center
02:53PM 38.3131 -82.4675 86° East 524 603 37,000  Level Indianapolis Center
02:54PM 38.3242 -82.2831 86° East 523 602 37,000  Level Indianapolis Center
02:55PM 38.3328 -82.0997 87° East 521 600 37,000  Level Indianapolis Center
02:57PM 38.3450 -81.8825 86° East 516 594 37,000  Level Indianapolis Center
02:58PM 38.3483 -81.6983 89° East 522 601 37,000  Level Indianapolis Center
02:59PM 38.3414 -81.4800 92° East 521 600 37,000  Level Indianapolis Center
03:00PM 38.3347 -81.2961 93° East 525 604 37,000  Level Indianapolis Center
03:01PM 38.3283 -81.1119 92° East 525 604 37,000  Level Indianapolis Center
03:01PM 38.3242 -81.0547 95° East 510 587 37,000  Level Washington Center
03:02PM 38.3189 -80.8478 92° East 525 604 37,000  Level Washington Center
03:03PM 38.3122 -80.6619 93° East 525 604 37,000 -300 Level Washington Center
03:04PM 38.3200 -80.4772 87° East 525 604 36,400 -750 Descending Washington Center
03:05PM 38.3439 -80.2961 80° East 520 598 35,500 -700 Descending Washington Center
03:06PM 38.3667 -80.1333 80° East 520 598 35,000 -250 Descending Washington Center
03:07PM 38.3900 -79.9575 80° East 520 598 35,000  Level Washington Center
03:08PM 38.4150 -79.7786 80° East 520 598 35,000 -150 Level Washington Center
03:09PM 38.4381 -79.5944 81° East 520 598 34,700 -1,450 Descending Washington Center
03:10PM 38.4606 -79.4178 81° East 520 598 32,100 -2,850 Descending Washington Center
03:11PM 38.4833 -79.2228 81° East 514 592 29,000 -2,200 Descending Washington Center
03:12PM 38.5072 -79.0489 80° East 507 583 27,700 -1,000 Descending Washington Center
03:13PM 38.5286 -78.8772 81° East 501 577 27,000 -700 Descending Washington Center
03:14PM 38.5458 -78.7028 83° East 501 577 26,300 -700 Descending Washington Center
03:15PM 38.5667 -78.5339 81° East 495 570 25,600 -550 Descending Washington Center
03:16PM 38.5833 -78.3669 83° East 485 558 25,200 -1,150 Descending Washington Center
03:17PM 38.6036 -78.2006 81° East 479 551 23,300 -2,000 Descending Washington Center
03:18PM 38.6217 -78.0364 82° East 474 545 21,200 -2,100 Descending Washington Center
03:19PM 38.6372 -77.8828 83° East 462 532 19,100 -1,100 Descending Washington Center
03:20PM 38.6483 -77.7317 85° East 440 506 19,000 -300 Descending Washington Center
03:21PM 38.6569 -77.5989 85° East 419 482 18,500 -759 Descending Washington Center
03:22PM 38.6667 -77.5167 81° East 413 475 17,900 -1,655 Descending Potomac TRACON
03:23PM 38.6667 -77.3833 90° East 404 465 16,100 -1,461 Descending Potomac TRACON
03:24PM 38.6833 -77.2500 81° East 385 443 15,100 -1,461 Descending Potomac TRACON
03:25PM 38.6833 -77.1167 90° East 383 441 13,300 -1,835 Descending Potomac TRACON
03:26PM 38.7000 -76.9833 81° East 369 425 11,400 -1,587 Descending Potomac TRACON
03:27PM 38.7000 -76.8500 90° East 351 404 10,100 -1,113 Descending Potomac TRACON
03:27PM 38.7008 -76.7967 89° East 349 402 9,600 -990 Descending Washington Center
03:28PM 38.7269 -76.6961 72° East 318 366 8,500 -1,295 Descending Washington Center
03:29PM 38.7833 -76.5667 61° Northeast 290 334 6,600 -1,468 Descending Potomac TRACON
03:30PM 38.8500 -76.5167 30° Northeast 281 323 5,100 -1,140 Descending Potomac TRACON
03:31PM 38.9167 -76.5167 360° North 262 302 4,300 -756 Descending Potomac TRACON
03:33PM 39.0000 -76.5167 360° North 247 284 3,500 -650 Descending Potomac TRACON
03:33PM 39.0500 -76.5500 333° Northwest 231 266 3,000 -783 Descending Potomac TRACON
03:34PM 39.0833 -76.6000 311° West 178 205 2,000 -893 Descending Potomac TRACON
03:35PM 39.1167 -76.6333 322° Northwest 137 158 1,200 -750 Descending Potomac TRACON
03:36PM 39.1500 -76.6500 339° North 134 154 500 -700 Descending Potomac TRACON
03:38PM 39.1667 -76.6667 339° North  Level FlightAware Approximate
03:45PM 39.1754 -76.6683 339° North  Level Estimated
03:46PM 39.1754 -76.6683 339° North  Level Estimated
03:47PM 39.1754 -76.6683 339° North  Level Estimated
03:48PM 39.1754 -76.6683 339° North  Level Estimated
03:49PM 39.1754 -76.6683 339° North  Level Estimated

Login

Don't have an account? Register now (free) for customized features, flight alerts, and more!